sensor_id;sensor_type;location;lat;lon;timestamp;temperature;humidity
22532;DHT22;11432;46.924;7.114;2022-09-30T00:02:25;9.00;99.90
22532;DHT22;11432;46.924;7.114;2022-09-30T00:04:50;9.00;99.90
22532;DHT22;11432;46.924;7.114;2022-09-30T00:07:16;9.00;99.90
22532;DHT22;11432;46.924;7.114;2022-09-30T00:09:42;8.90;99.90
22532;DHT22;11432;46.924;7.114;2022-09-30T00:12:07;8.90;99.90
22532;DHT22;11432;46.924;7.114;2022-09-30T00:14:34;8.90;99.90
22532;DHT22;11432;46.924;7.114;2022-09-30T00:17:00;8.90;99.90
22532;DHT22;11432;46.924;7.114;2022-09-30T00:19:26;8.90;99.90
22532;DHT22;11432;46.924;7.114;2022-09-30T00:21:52;8.90;99.90
22532;DHT22;11432;46.924;7.114;2022-09-30T00:24:17;8.90;99.90
22532;DHT22;11432;46.924;7.114;2022-09-30T00:26:43;8.90;99.90
22532;DHT22;11432;46.924;7.114;2022-09-30T00:29:09;8.90;99.90
22532;DHT22;11432;46.924;7.114;2022-09-30T00:31:35;8.90;99.90
22532;DHT22;11432;46.924;7.114;2022-09-30T00:34:02;9.00;99.90
22532;DHT22;11432;46.924;7.114;2022-09-30T00:36:48;9.00;99.90
22532;DHT22;11432;46.924;7.114;2022-09-30T00:39:17;9.10;99.90
22532;DHT22;11432;46.924;7.114;2022-09-30T00:41:44;9.20;99.90
22532;DHT22;11432;46.924;7.114;2022-09-30T00:44:47;9.20;99.90
22532;DHT22;11432;46.924;7.114;2022-09-30T00:47:32;9.20;99.90
22532;DHT22;11432;46.924;7.114;2022-09-30T00:52:31;9.20;99.90
22532;DHT22;11432;46.924;7.114;2022-09-30T00:54:59;9.20;99.90
22532;DHT22;11432;46.924;7.114;2022-09-30T00:57:27;9.10;99.90
22532;DHT22;11432;46.924;7.114;2022-09-30T00:59:53;9.10;99.90
22532;DHT22;11432;46.924;7.114;2022-09-30T01:02:19;9.10;99.90
22532;DHT22;11432;46.924;7.114;2022-09-30T01:04:45;9.10;99.90
22532;DHT22;11432;46.924;7.114;2022-09-30T01:07:12;9.10;99.90
22532;DHT22;11432;46.924;7.114;2022-09-30T01:09:40;9.10;99.90
22532;DHT22;11432;46.924;7.114;2022-09-30T01:12:10;9.10;99.90
22532;DHT22;11432;46.924;7.114;2022-09-30T01:14:36;9.10;99.90
22532;DHT22;11432;46.924;7.114;2022-09-30T01:22:25;9.10;99.90
22532;DHT22;11432;46.924;7.114;2022-09-30T01:33:11;9.10;99.90
22532;DHT22;11432;46.924;7.114;2022-09-30T01:38:37;9.10;99.90
22532;DHT22;11432;46.924;7.114;2022-09-30T01:41:22;9.10;99.90
22532;DHT22;11432;46.924;7.114;2022-09-30T01:46:24;9.20;99.90
22532;DHT22;11432;46.924;7.114;2022-09-30T01:48:59;9.10;99.90
22532;DHT22;11432;46.924;7.114;2022-09-30T01:54:31;9.10;99.90
22532;DHT22;11432;46.924;7.114;2022-09-30T01:57:14;9.10;99.90
22532;DHT22;11432;46.924;7.114;2022-09-30T01:59:56;9.10;99.90
22532;DHT22;11432;46.924;7.114;2022-09-30T02:02:30;9.00;99.90
22532;DHT22;11432;46.924;7.114;2022-09-30T02:05:18;9.10;99.90
22532;DHT22;11432;46.924;7.114;2022-09-30T02:07:58;9.00;99.90
22532;DHT22;11432;46.924;7.114;2022-09-30T02:10:33;9.00;99.90
22532;DHT22;11432;46.924;7.114;2022-09-30T02:13:18;9.00;99.90
22532;DHT22;11432;46.924;7.114;2022-09-30T02:15:50;9.00;99.90
22532;DHT22;11432;46.924;7.114;2022-09-30T02:18:23;9.00;99.90
22532;DHT22;11432;46.924;7.114;2022-09-30T02:20:56;9.00;99.90
22532;DHT22;11432;46.924;7.114;2022-09-30T02:23:26;8.90;99.90
22532;DHT22;11432;46.924;7.114;2022-09-30T02:26:05;8.90;99.90
22532;DHT22;11432;46.924;7.114;2022-09-30T02:28:35;8.90;99.90
22532;DHT22;11432;46.924;7.114;2022-09-30T02:31:02;8.90;99.90
22532;DHT22;11432;46.924;7.114;2022-09-30T02:33:51;9.00;99.90
22532;DHT22;11432;46.924;7.114;2022-09-30T02:36:27;8.90;99.90
22532;DHT22;11432;46.924;7.114;2022-09-30T02:39:03;9.00;99.90
22532;DHT22;11432;46.924;7.114;2022-09-30T02:41:34;8.90;99.90
22532;DHT22;11432;46.924;7.114;2022-09-30T02:44:03;9.00;99.90
22532;DHT22;11432;46.924;7.114;2022-09-30T02:46:53;9.00;99.90
22532;DHT22;11432;46.924;7.114;2022-09-30T02:49:38;9.00;99.90
22532;DHT22;11432;46.924;7.114;2022-09-30T02:55:34;8.90;99.90
22532;DHT22;11432;46.924;7.114;2022-09-30T02:58:10;8.80;99.90
22532;DHT22;11432;46.924;7.114;2022-09-30T03:00:37;8.80;99.90
22532;DHT22;11432;46.924;7.114;2022-09-30T03:03:32;8.80;99.90
22532;DHT22;11432;46.924;7.114;2022-09-30T03:05:56;8.80;99.90
22532;DHT22;11432;46.924;7.114;2022-09-30T03:08:22;8.80;99.90
22532;DHT22;11432;46.924;7.114;2022-09-30T03:10:49;8.80;99.90
22532;DHT22;11432;46.924;7.114;2022-09-30T03:29:58;8.70;99.90
22532;DHT22;11432;46.924;7.114;2022-09-30T03:40:26;8.90;99.90
22532;DHT22;11432;46.924;7.114;2022-09-30T03:42:56;8.90;99.90
22532;DHT22;11432;46.924;7.114;2022-09-30T03:45:30;8.90;99.90
22532;DHT22;11432;46.924;7.114;2022-09-30T03:48:02;8.90;99.90
22532;DHT22;11432;46.924;7.114;2022-09-30T03:50:30;8.90;99.90
22532;DHT22;11432;46.924;7.114;2022-09-30T03:52:57;8.90;99.90
22532;DHT22;11432;46.924;7.114;2022-09-30T03:55:23;8.90;99.90
22532;DHT22;11432;46.924;7.114;2022-09-30T03:57:50;8.80;99.90
22532;DHT22;11432;46.924;7.114;2022-09-30T04:00:16;8.80;99.90
22532;DHT22;11432;46.924;7.114;2022-09-30T04:02:41;8.80;99.90
22532;DHT22;11432;46.924;7.114;2022-09-30T04:05:07;8.80;99.90
22532;DHT22;11432;46.924;7.114;2022-09-30T04:07:33;8.80;99.90
22532;DHT22;11432;46.924;7.114;2022-09-30T04:09:59;8.80;99.90
22532;DHT22;11432;46.924;7.114;2022-09-30T04:12:25;8.80;99.90
22532;DHT22;11432;46.924;7.114;2022-09-30T04:14:51;8.80;99.90
22532;DHT22;11432;46.924;7.114;2022-09-30T04:17:16;8.90;99.90
22532;DHT22;11432;46.924;7.114;2022-09-30T04:19:42;8.80;99.90
22532;DHT22;11432;46.924;7.114;2022-09-30T04:22:08;8.80;99.90
22532;DHT22;11432;46.924;7.114;2022-09-30T04:24:34;8.80;99.90
22532;DHT22;11432;46.924;7.114;2022-09-30T04:27:00;8.90;99.90
22532;DHT22;11432;46.924;7.114;2022-09-30T04:29:26;8.90;99.90
22532;DHT22;11432;46.924;7.114;2022-09-30T04:31:52;8.90;99.90
22532;DHT22;11432;46.924;7.114;2022-09-30T04:34:18;8.90;99.90
22532;DHT22;11432;46.924;7.114;2022-09-30T04:36:44;9.00;99.90
22532;DHT22;11432;46.924;7.114;2022-09-30T04:39:09;9.00;99.90
22532;DHT22;11432;46.924;7.114;2022-09-30T04:41:35;8.90;99.90
22532;DHT22;11432;46.924;7.114;2022-09-30T04:44:01;8.90;99.90
22532;DHT22;11432;46.924;7.114;2022-09-30T04:46:32;8.90;99.90
22532;DHT22;11432;46.924;7.114;2022-09-30T04:48:59;8.90;99.90
22532;DHT22;11432;46.924;7.114;2022-09-30T04:51:25;9.00;99.90
22532;DHT22;11432;46.924;7.114;2022-09-30T04:53:51;9.00;99.90
22532;DHT22;11432;46.924;7.114;2022-09-30T04:56:16;8.90;99.90
22532;DHT22;11432;46.924;7.114;2022-09-30T04:58:42;8.90;99.90
22532;DHT22;11432;46.924;7.114;2022-09-30T05:01:11;9.00;99.90
22532;DHT22;11432;46.924;7.114;2022-09-30T05:03:37;8.90;99.90
22532;DHT22;11432;46.924;7.114;2022-09-30T05:06:04;8.90;99.90
22532;DHT22;11432;46.924;7.114;2022-09-30T05:08:30;8.90;99.90
22532;DHT22;11432;46.924;7.114;2022-09-30T05:11:04;8.90;99.90
22532;DHT22;11432;46.924;7.114;2022-09-30T05:13:33;8.90;99.90
22532;DHT22;11432;46.924;7.114;2022-09-30T05:15:59;8.90;99.90
22532;DHT22;11432;46.924;7.114;2022-09-30T05:18:26;8.90;99.90
22532;DHT22;11432;46.924;7.114;2022-09-30T05:20:52;8.90;99.90
22532;DHT22;11432;46.924;7.114;2022-09-30T05:23:19;8.90;99.90
22532;DHT22;11432;46.924;7.114;2022-09-30T05:25:45;8.90;99.90
22532;DHT22;11432;46.924;7.114;2022-09-30T05:28:17;8.90;99.90
22532;DHT22;11432;46.924;7.114;2022-09-30T05:30:44;8.90;99.90
22532;DHT22;11432;46.924;7.114;2022-09-30T05:33:11;8.90;99.90
22532;DHT22;11432;46.924;7.114;2022-09-30T05:35:41;8.90;99.90
22532;DHT22;11432;46.924;7.114;2022-09-30T05:38:08;8.80;99.90
22532;DHT22;11432;46.924;7.114;2022-09-30T05:40:36;8.80;99.90
22532;DHT22;11432;46.924;7.114;2022-09-30T05:43:03;8.80;99.90
22532;DHT22;11432;46.924;7.114;2022-09-30T05:45:29;8.80;99.90
22532;DHT22;11432;46.924;7.114;2022-09-30T05:47:55;8.90;99.90
22532;DHT22;11432;46.924;7.114;2022-09-30T05:50:23;8.90;99.90
22532;DHT22;11432;46.924;7.114;2022-09-30T05:52:49;8.90;99.90
22532;DHT22;11432;46.924;7.114;2022-09-30T05:55:16;8.90;99.90
22532;DHT22;11432;46.924;7.114;2022-09-30T05:59:45;8.90;99.90
22532;DHT22;11432;46.924;7.114;2022-09-30T06:02:12;8.90;99.90
22532;DHT22;11432;46.924;7.114;2022-09-30T06:04:38;9.00;99.90
22532;DHT22;11432;46.924;7.114;2022-09-30T06:07:03;8.90;99.90
22532;DHT22;11432;46.924;7.114;2022-09-30T06:09:30;8.90;99.90
22532;DHT22;11432;46.924;7.114;2022-09-30T06:11:56;8.80;99.90
22532;DHT22;11432;46.924;7.114;2022-09-30T06:14:24;8.80;99.90
22532;DHT22;11432;46.924;7.114;2022-09-30T06:16:50;8.80;99.90
22532;DHT22;11432;46.924;7.114;2022-09-30T06:19:16;8.80;99.90
22532;DHT22;11432;46.924;7.114;2022-09-30T06:21:41;8.70;99.90
22532;DHT22;11432;46.924;7.114;2022-09-30T06:24:07;8.80;99.90
22532;DHT22;11432;46.924;7.114;2022-09-30T06:26:37;8.80;99.90
22532;DHT22;11432;46.924;7.114;2022-09-30T06:29:03;8.80;99.90
22532;DHT22;11432;46.924;7.114;2022-09-30T06:31:29;8.80;99.90
22532;DHT22;11432;46.924;7.114;2022-09-30T06:33:56;8.80;99.90
22532;DHT22;11432;46.924;7.114;2022-09-30T06:36:22;8.80;99.90
22532;DHT22;11432;46.924;7.114;2022-09-30T06:38:48;8.80;99.90
22532;DHT22;11432;46.924;7.114;2022-09-30T06:41:17;8.70;99.90
22532;DHT22;11432;46.924;7.114;2022-09-30T06:43:42;8.80;99.90
22532;DHT22;11432;46.924;7.114;2022-09-30T06:46:08;8.70;99.90
22532;DHT22;11432;46.924;7.114;2022-09-30T06:48:36;9.10;99.90
22532;DHT22;11432;46.924;7.114;2022-09-30T06:51:02;9.20;99.90
22532;DHT22;11432;46.924;7.114;2022-09-30T06:53:28;9.40;99.90
22532;DHT22;11432;46.924;7.114;2022-09-30T06:55:55;9.50;99.90
22532;DHT22;11432;46.924;7.114;2022-09-30T06:58:21;9.50;99.90
22532;DHT22;11432;46.924;7.114;2022-09-30T07:00:58;9.60;99.90
22532;DHT22;11432;46.924;7.114;2022-09-30T07:03:27;9.60;99.90
22532;DHT22;11432;46.924;7.114;2022-09-30T07:05:59;10.00;99.90
22532;DHT22;11432;46.924;7.114;2022-09-30T07:08:26;10.00;99.90
22532;DHT22;11432;46.924;7.114;2022-09-30T07:11:00;10.20;99.90
22532;DHT22;11432;46.924;7.114;2022-09-30T07:13:26;10.20;99.90
22532;DHT22;11432;46.924;7.114;2022-09-30T07:15:52;10.10;99.90
22532;DHT22;11432;46.924;7.114;2022-09-30T07:18:19;10.00;99.90
22532;DHT22;11432;46.924;7.114;2022-09-30T07:20:50;10.30;99.90
22532;DHT22;11432;46.924;7.114;2022-09-30T07:23:16;9.90;99.90
22532;DHT22;11432;46.924;7.114;2022-09-30T07:25:49;9.80;99.90
22532;DHT22;11432;46.924;7.114;2022-09-30T07:28:15;9.60;99.90
22532;DHT22;11432;46.924;7.114;2022-09-30T07:30:42;9.70;99.90
22532;DHT22;11432;46.924;7.114;2022-09-30T07:33:08;9.50;99.90
22532;DHT22;11432;46.924;7.114;2022-09-30T07:35:34;9.50;99.90
22532;DHT22;11432;46.924;7.114;2022-09-30T07:38:00;9.80;99.90
22532;DHT22;11432;46.924;7.114;2022-09-30T07:40:25;10.00;99.90
22532;DHT22;11432;46.924;7.114;2022-09-30T07:42:56;10.10;99.90
22532;DHT22;11432;46.924;7.114;2022-09-30T07:45:22;10.10;99.90
22532;DHT22;11432;46.924;7.114;2022-09-30T07:47:48;10.40;99.90
22532;DHT22;11432;46.924;7.114;2022-09-30T07:50:14;10.90;99.90
22532;DHT22;11432;46.924;7.114;2022-09-30T07:52:40;10.90;99.90
22532;DHT22;11432;46.924;7.114;2022-09-30T07:55:06;10.70;99.90
22532;DHT22;11432;46.924;7.114;2022-09-30T07:57:32;10.60;99.90
22532;DHT22;11432;46.924;7.114;2022-09-30T07:59:57;10.60;99.90
22532;DHT22;11432;46.924;7.114;2022-09-30T08:02:23;10.60;99.90
22532;DHT22;11432;46.924;7.114;2022-09-30T08:04:49;10.50;99.90
22532;DHT22;11432;46.924;7.114;2022-09-30T08:07:16;10.50;99.90
22532;DHT22;11432;46.924;7.114;2022-09-30T08:09:42;10.50;99.90
22532;DHT22;11432;46.924;7.114;2022-09-30T08:12:08;10.50;99.90
22532;DHT22;11432;46.924;7.114;2022-09-30T08:14:34;10.60;99.90
22532;DHT22;11432;46.924;7.114;2022-09-30T08:17:00;10.50;99.90
22532;DHT22;11432;46.924;7.114;2022-09-30T08:19:27;10.60;99.90
22532;DHT22;11432;46.924;7.114;2022-09-30T08:21:54;10.60;99.90
22532;DHT22;11432;46.924;7.114;2022-09-30T08:24:20;10.70;99.90
22532;DHT22;11432;46.924;7.114;2022-09-30T08:26:46;10.70;99.90
22532;DHT22;11432;46.924;7.114;2022-09-30T08:29:12;10.70;99.90
22532;DHT22;11432;46.924;7.114;2022-09-30T08:31:39;10.80;99.90
22532;DHT22;11432;46.924;7.114;2022-09-30T08:34:05;10.70;99.90
22532;DHT22;11432;46.924;7.114;2022-09-30T08:36:31;10.70;99.90
22532;DHT22;11432;46.924;7.114;2022-09-30T08:38:56;10.80;99.90
22532;DHT22;11432;46.924;7.114;2022-09-30T08:41:41;10.80;99.90
22532;DHT22;11432;46.924;7.114;2022-09-30T08:52:10;10.80;99.90
22532;DHT22;11432;46.924;7.114;2022-09-30T08:54:38;11.00;99.90
22532;DHT22;11432;46.924;7.114;2022-09-30T08:57:10;11.20;99.90
22532;DHT22;11432;46.924;7.114;2022-09-30T08:59:42;11.30;99.90
22532;DHT22;11432;46.924;7.114;2022-09-30T09:04:44;11.50;99.90
22532;DHT22;11432;46.924;7.114;2022-09-30T09:10:27;11.80;99.90
22532;DHT22;11432;46.924;7.114;2022-09-30T09:23:57;12.20;99.90
22532;DHT22;11432;46.924;7.114;2022-09-30T09:26:25;12.40;99.90
22532;DHT22;11432;46.924;7.114;2022-09-30T09:31:38;12.80;99.90
22532;DHT22;11432;46.924;7.114;2022-09-30T09:34:11;12.70;99.90
22532;DHT22;11432;46.924;7.114;2022-09-30T09:42:32;13.10;99.90
22532;DHT22;11432;46.924;7.114;2022-09-30T09:47:32;12.90;99.90
22532;DHT22;11432;46.924;7.114;2022-09-30T09:49:59;12.70;99.90
22532;DHT22;11432;46.924;7.114;2022-09-30T09:55:27;12.70;99.90
22532;DHT22;11432;46.924;7.114;2022-09-30T09:58:09;12.60;99.90
22532;DHT22;11432;46.924;7.114;2022-09-30T10:00:35;12.70;99.90
22532;DHT22;11432;46.924;7.114;2022-09-30T10:03:18;12.70;99.90
22532;DHT22;11432;46.924;7.114;2022-09-30T10:06:07;12.80;99.90
22532;DHT22;11432;46.924;7.114;2022-09-30T10:08:38;12.80;99.90
22532;DHT22;11432;46.924;7.114;2022-09-30T10:11:06;12.80;99.90
22532;DHT22;11432;46.924;7.114;2022-09-30T10:13:43;12.90;99.90
22532;DHT22;11432;46.924;7.114;2022-09-30T10:16:32;12.90;99.90
22532;DHT22;11432;46.924;7.114;2022-09-30T10:19:01;12.90;99.90
22532;DHT22;11432;46.924;7.114;2022-09-30T10:21:28;12.90;99.90
22532;DHT22;11432;46.924;7.114;2022-09-30T10:23:54;13.00;99.90
22532;DHT22;11432;46.924;7.114;2022-09-30T10:26:24;13.00;99.90
22532;DHT22;11432;46.924;7.114;2022-09-30T10:28:57;13.10;99.90
22532;DHT22;11432;46.924;7.114;2022-09-30T10:31:39;13.30;99.90
22532;DHT22;11432;46.924;7.114;2022-09-30T10:36:47;13.00;99.90
22532;DHT22;11432;46.924;7.114;2022-09-30T10:41:48;13.20;99.90
22532;DHT22;11432;46.924;7.114;2022-09-30T10:44:21;13.20;99.90
22532;DHT22;11432;46.924;7.114;2022-09-30T10:46:49;13.30;99.90
22532;DHT22;11432;46.924;7.114;2022-09-30T10:49:26;13.20;99.90
22532;DHT22;11432;46.924;7.114;2022-09-30T10:51:54;13.30;99.90
22532;DHT22;11432;46.924;7.114;2022-09-30T10:54:45;13.40;99.90
22532;DHT22;11432;46.924;7.114;2022-09-30T10:57:31;13.40;99.90
22532;DHT22;11432;46.924;7.114;2022-09-30T11:05:16;13.40;99.90
22532;DHT22;11432;46.924;7.114;2022-09-30T11:13:24;13.70;1.00
22532;DHT22;11432;46.924;7.114;2022-09-30T11:15:55;13.80;1.00
22532;DHT22;11432;46.924;7.114;2022-09-30T11:21:09;14.10;1.00
22532;DHT22;11432;46.924;7.114;2022-09-30T11:23:45;14.40;1.00
22532;DHT22;11432;46.924;7.114;2022-09-30T11:26:17;14.60;1.00
22532;DHT22;11432;46.924;7.114;2022-09-30T11:29:10;14.80;1.00
22532;DHT22;11432;46.924;7.114;2022-09-30T11:31:46;14.80;1.00
22532;DHT22;11432;46.924;7.114;2022-09-30T11:34:40;14.70;1.00
22532;DHT22;11432;46.924;7.114;2022-09-30T11:37:29;14.60;1.00
22532;DHT22;11432;46.924;7.114;2022-09-30T11:40:02;14.40;1.00
22532;DHT22;11432;46.924;7.114;2022-09-30T11:48:20;13.90;1.00
22532;DHT22;11432;46.924;7.114;2022-09-30T11:50:51;13.60;1.00
22532;DHT22;11432;46.924;7.114;2022-09-30T11:58:37;13.80;1.00
22532;DHT22;11432;46.924;7.114;2022-09-30T12:04:43;13.70;1.00
22532;DHT22;11432;46.924;7.114;2022-09-30T12:07:15;13.90;1.00
22532;DHT22;11432;46.924;7.114;2022-09-30T12:09:43;14.00;1.00
22532;DHT22;11432;46.924;7.114;2022-09-30T12:12:12;14.10;1.00
22532;DHT22;11432;46.924;7.114;2022-09-30T12:14:58;14.20;1.00
22532;DHT22;11432;46.924;7.114;2022-09-30T12:17:33;14.00;1.00
22532;DHT22;11432;46.924;7.114;2022-09-30T12:20:09;14.10;1.00
22532;DHT22;11432;46.924;7.114;2022-09-30T12:22:42;14.10;1.00
22532;DHT22;11432;46.924;7.114;2022-09-30T12:25:20;14.10;1.00
22532;DHT22;11432;46.924;7.114;2022-09-30T12:30:19;14.00;1.00
22532;DHT22;11432;46.924;7.114;2022-09-30T12:38:47;14.10;1.00
22532;DHT22;11432;46.924;7.114;2022-09-30T12:44:00;14.30;1.00
22532;DHT22;11432;46.924;7.114;2022-09-30T12:49:12;14.30;1.00
22532;DHT22;11432;46.924;7.114;2022-09-30T12:51:43;14.10;1.00
22532;DHT22;11432;46.924;7.114;2022-09-30T12:54:19;14.10;1.00
22532;DHT22;11432;46.924;7.114;2022-09-30T12:56:53;14.20;1.00
22532;DHT22;11432;46.924;7.114;2022-09-30T12:59:25;14.30;10.40
22532;DHT22;11432;46.924;7.114;2022-09-30T13:01:53;14.60;1.00
22532;DHT22;11432;46.924;7.114;2022-09-30T13:04:38;15.20;3.40
22532;DHT22;11432;46.924;7.114;2022-09-30T13:07:20;16.60;84.80
22532;DHT22;11432;46.924;7.114;2022-09-30T13:10:01;17.40;94.40
22532;DHT22;11432;46.924;7.114;2022-09-30T13:12:46;16.90;88.90
22532;DHT22;11432;46.924;7.114;2022-09-30T13:17:56;18.70;88.10
22532;DHT22;11432;46.924;7.114;2022-09-30T13:20:52;20.40;91.60
22532;DHT22;11432;46.924;7.114;2022-09-30T13:23:40;20.10;90.20
22532;DHT22;11432;46.924;7.114;2022-09-30T13:26:36;18.90;79.60
22532;DHT22;11432;46.924;7.114;2022-09-30T13:34:23;16.60;1.00
22532;DHT22;11432;46.924;7.114;2022-09-30T13:39:24;15.70;1.00
22532;DHT22;11432;46.924;7.114;2022-09-30T13:45:09;15.50;1.00
22532;DHT22;11432;46.924;7.114;2022-09-30T13:47:54;15.30;1.00
22532;DHT22;11432;46.924;7.114;2022-09-30T13:50:29;15.20;1.00
22532;DHT22;11432;46.924;7.114;2022-09-30T13:52:59;15.10;1.00
22532;DHT22;11432;46.924;7.114;2022-09-30T13:55:35;15.10;1.00
22532;DHT22;11432;46.924;7.114;2022-09-30T14:01:12;15.20;1.00
22532;DHT22;11432;46.924;7.114;2022-09-30T14:04:48;15.70;1.00
22532;DHT22;11432;46.924;7.114;2022-09-30T14:12:29;15.50;1.00
22532;DHT22;11432;46.924;7.114;2022-09-30T14:15:39;15.40;1.00
22532;DHT22;11432;46.924;7.114;2022-09-30T14:24:13;15.50;1.00
22532;DHT22;11432;46.924;7.114;2022-09-30T14:30:04;15.70;1.00
22532;DHT22;11432;46.924;7.114;2022-09-30T14:32:46;15.80;1.00
22532;DHT22;11432;46.924;7.114;2022-09-30T14:35:25;15.70;1.00
22532;DHT22;11432;46.924;7.114;2022-09-30T14:38:00;15.40;1.00
22532;DHT22;11432;46.924;7.114;2022-09-30T14:40:29;15.40;1.00
22532;DHT22;11432;46.924;7.114;2022-09-30T14:43:03;15.30;1.00
22532;DHT22;11432;46.924;7.114;2022-09-30T14:45:32;15.10;1.00
22532;DHT22;11432;46.924;7.114;2022-09-30T14:48:00;15.10;1.00
22532;DHT22;11432;46.924;7.114;2022-09-30T14:50:38;15.10;1.00
22532;DHT22;11432;46.924;7.114;2022-09-30T14:53:27;15.10;1.00
22532;DHT22;11432;46.924;7.114;2022-09-30T14:55:53;15.00;1.00
22532;DHT22;11432;46.924;7.114;2022-09-30T14:58:27;15.10;1.00
22532;DHT22;11432;46.924;7.114;2022-09-30T15:01:06;15.10;1.00
22532;DHT22;11432;46.924;7.114;2022-09-30T15:03:41;15.10;1.00
22532;DHT22;11432;46.924;7.114;2022-09-30T15:06:20;15.00;1.00
22532;DHT22;11432;46.924;7.114;2022-09-30T15:08:48;14.90;1.00
22532;DHT22;11432;46.924;7.114;2022-09-30T15:11:19;15.10;1.00
22532;DHT22;11432;46.924;7.114;2022-09-30T15:13:48;15.00;1.00
22532;DHT22;11432;46.924;7.114;2022-09-30T15:16:24;15.00;1.00
22532;DHT22;11432;46.924;7.114;2022-09-30T15:18:51;15.00;1.00
22532;DHT22;11432;46.924;7.114;2022-09-30T15:21:18;15.00;1.00
22532;DHT22;11432;46.924;7.114;2022-09-30T15:23:50;15.20;1.00
22532;DHT22;11432;46.924;7.114;2022-09-30T15:26:17;15.30;1.00
22532;DHT22;11432;46.924;7.114;2022-09-30T15:28:43;15.30;1.00
22532;DHT22;11432;46.924;7.114;2022-09-30T15:31:43;15.30;1.00
22532;DHT22;11432;46.924;7.114;2022-09-30T15:34:18;15.10;1.00
22532;DHT22;11432;46.924;7.114;2022-09-30T15:36:46;14.90;1.00
22532;DHT22;11432;46.924;7.114;2022-09-30T15:39:26;14.90;1.00
22532;DHT22;11432;46.924;7.114;2022-09-30T15:42:13;14.80;1.00
22532;DHT22;11432;46.924;7.114;2022-09-30T15:44:40;14.60;1.00
22532;DHT22;11432;46.924;7.114;2022-09-30T15:47:08;14.50;1.00
22532;DHT22;11432;46.924;7.114;2022-09-30T15:52:38;14.30;1.00
22532;DHT22;11432;46.924;7.114;2022-09-30T15:55:34;14.20;1.00
22532;DHT22;11432;46.924;7.114;2022-09-30T15:58:00;14.20;1.00
22532;DHT22;11432;46.924;7.114;2022-09-30T16:00:37;14.20;1.00
22532;DHT22;11432;46.924;7.114;2022-09-30T16:03:22;14.10;1.00
22532;DHT22;11432;46.924;7.114;2022-09-30T16:05:48;14.10;1.00
22532;DHT22;11432;46.924;7.114;2022-09-30T16:08:26;13.90;1.00
22532;DHT22;11432;46.924;7.114;2022-09-30T16:10:54;13.90;1.00
22532;DHT22;11432;46.924;7.114;2022-09-30T16:13:23;13.90;1.00
22532;DHT22;11432;46.924;7.114;2022-09-30T16:15:51;13.90;1.00
22532;DHT22;11432;46.924;7.114;2022-09-30T16:18:22;13.90;1.00
22532;DHT22;11432;46.924;7.114;2022-09-30T16:21:03;13.90;1.00
22532;DHT22;11432;46.924;7.114;2022-09-30T16:23:36;13.90;1.00
22532;DHT22;11432;46.924;7.114;2022-09-30T16:26:21;13.80;1.00
22532;DHT22;11432;46.924;7.114;2022-09-30T16:28:53;13.80;1.00
22532;DHT22;11432;46.924;7.114;2022-09-30T16:31:21;13.80;1.00
22532;DHT22;11432;46.924;7.114;2022-09-30T16:33:47;13.70;1.00
22532;DHT22;11432;46.924;7.114;2022-09-30T16:36:14;13.70;1.00
22532;DHT22;11432;46.924;7.114;2022-09-30T16:38:40;13.70;1.00
22532;DHT22;11432;46.924;7.114;2022-09-30T16:41:10;13.70;1.00
22532;DHT22;11432;46.924;7.114;2022-09-30T16:43:37;13.60;1.00
22532;DHT22;11432;46.924;7.114;2022-09-30T16:46:03;13.50;1.00
22532;DHT22;11432;46.924;7.114;2022-09-30T16:48:29;13.50;1.00
22532;DHT22;11432;46.924;7.114;2022-09-30T16:51:06;13.40;1.00
22532;DHT22;11432;46.924;7.114;2022-09-30T16:53:33;13.40;1.00
22532;DHT22;11432;46.924;7.114;2022-09-30T16:55:59;13.30;1.00
22532;DHT22;11432;46.924;7.114;2022-09-30T16:58:25;13.30;1.00
22532;DHT22;11432;46.924;7.114;2022-09-30T17:00:51;13.20;1.00
22532;DHT22;11432;46.924;7.114;2022-09-30T17:03:17;13.00;1.00
22532;DHT22;11432;46.924;7.114;2022-09-30T17:05:46;13.00;1.00
22532;DHT22;11432;46.924;7.114;2022-09-30T17:08:18;12.80;1.00
22532;DHT22;11432;46.924;7.114;2022-09-30T17:10:45;12.70;1.00
22532;DHT22;11432;46.924;7.114;2022-09-30T17:13:12;12.70;1.00
22532;DHT22;11432;46.924;7.114;2022-09-30T17:15:41;12.60;1.00
22532;DHT22;11432;46.924;7.114;2022-09-30T17:18:08;12.40;1.00
22532;DHT22;11432;46.924;7.114;2022-09-30T17:20:36;12.40;1.00
22532;DHT22;11432;46.924;7.114;2022-09-30T17:23:02;12.40;45.10
22532;DHT22;11432;46.924;7.114;2022-09-30T17:25:28;12.20;58.10
22532;DHT22;11432;46.924;7.114;2022-09-30T17:27:54;12.10;94.10
22532;DHT22;11432;46.924;7.114;2022-09-30T17:30:20;12.10;99.90
22532;DHT22;11432;46.924;7.114;2022-09-30T17:32:46;12.00;99.90
22532;DHT22;11432;46.924;7.114;2022-09-30T17:35:12;12.00;99.90
22532;DHT22;11432;46.924;7.114;2022-09-30T17:37:38;11.90;99.90
22532;DHT22;11432;46.924;7.114;2022-09-30T17:40:05;11.90;99.90
22532;DHT22;11432;46.924;7.114;2022-09-30T17:42:51;11.90;99.90
22532;DHT22;11432;46.924;7.114;2022-09-30T17:45:33;11.90;99.90
22532;DHT22;11432;46.924;7.114;2022-09-30T17:47:59;11.80;99.90
22532;DHT22;11432;46.924;7.114;2022-09-30T17:50:25;11.80;99.90
22532;DHT22;11432;46.924;7.114;2022-09-30T17:52:50;11.70;99.90
22532;DHT22;11432;46.924;7.114;2022-09-30T17:55:16;11.90;99.90
22532;DHT22;11432;46.924;7.114;2022-09-30T17:57:41;11.80;99.90
22532;DHT22;11432;46.924;7.114;2022-09-30T18:00:07;11.70;99.90
22532;DHT22;11432;46.924;7.114;2022-09-30T18:02:33;11.60;99.90
22532;DHT22;11432;46.924;7.114;2022-09-30T18:04:59;11.50;99.90
22532;DHT22;11432;46.924;7.114;2022-09-30T18:07:24;11.50;99.90
22532;DHT22;11432;46.924;7.114;2022-09-30T18:09:52;11.40;99.90
22532;DHT22;11432;46.924;7.114;2022-09-30T18:12:17;11.30;99.90
22532;DHT22;11432;46.924;7.114;2022-09-30T18:14:43;11.20;99.90
22532;DHT22;11432;46.924;7.114;2022-09-30T18:17:08;11.20;99.90
22532;DHT22;11432;46.924;7.114;2022-09-30T18:19:34;11.20;99.90
22532;DHT22;11432;46.924;7.114;2022-09-30T18:22:00;11.10;99.90
22532;DHT22;11432;46.924;7.114;2022-09-30T18:24:26;11.10;99.90
22532;DHT22;11432;46.924;7.114;2022-09-30T18:27:18;11.00;99.90
22532;DHT22;11432;46.924;7.114;2022-09-30T18:29:47;10.90;99.90
22532;DHT22;11432;46.924;7.114;2022-09-30T18:32:12;10.80;99.90
22532;DHT22;11432;46.924;7.114;2022-09-30T18:34:38;10.80;99.90
22532;DHT22;11432;46.924;7.114;2022-09-30T18:37:04;10.70;99.90
22532;DHT22;11432;46.924;7.114;2022-09-30T18:39:33;10.60;99.90
22532;DHT22;11432;46.924;7.114;2022-09-30T18:41:59;10.50;99.90
22532;DHT22;11432;46.924;7.114;2022-09-30T18:44:25;10.50;99.90
22532;DHT22;11432;46.924;7.114;2022-09-30T18:46:57;10.50;99.90
22532;DHT22;11432;46.924;7.114;2022-09-30T18:49:23;10.50;99.90
22532;DHT22;11432;46.924;7.114;2022-09-30T18:51:48;10.30;99.90
22532;DHT22;11432;46.924;7.114;2022-09-30T18:54:14;10.30;99.90
22532;DHT22;11432;46.924;7.114;2022-09-30T18:56:41;10.20;99.90
22532;DHT22;11432;46.924;7.114;2022-09-30T18:59:09;10.20;99.90
22532;DHT22;11432;46.924;7.114;2022-09-30T19:01:40;10.10;99.90